JSI weather

Skiathos Island National Airport
Skiathos, Magnesia, Greece

Public forecast

Using degrees Celsius for public forecast. Weather courtesy of forecast.io.

METAR (pilot weather report)

Report is more than 6 hours old.

Retrieved 2019/03/26 12:50 UTC (13 hours ago):

LGSK 261250Z 01006KT 9999 FEW020 15/11 Q1011

TAF (pilot weather forecast)

Forecast is more than 12 hours old.

Retrieved 2012/09/27 00:18 UTC (6 years ago):

TAF LGSK 272300Z 2800/2909 01010KT 9999 FEW020